Swan Lake, Canada
Current Conditions -  °F | °C
As of 10:00 PM on Monday 20 Oct 2014 (Local Time) from CYPG Reporting Station
Clear Clear  
Wind Chill: 34°   Ceiling: Unl
Heat Index: 41°   Visibility: 12mi
Dew Point: 37°   Wind: 12mph
Humidity: 87%   Direction: 110°ESE
Pressure: 30"   Gusts: NA
Location:  49.4°N, 98.8°W
Report Text: CYPG 210300Z 11010KT 12SM SKC 05/03 A3000 RMK SLP171
Loading
Personal Weather Stations






























Interactive Weather Map
Tropical Storm Tracking
New forecast layout! Learn more

10-Day Weather Forecast

Advertisements
Track Severe Weather on mobile